Time;durP1;ratioP1;P1;durP2;ratioP2;P2;SDS_P1;SDS_P2;PMS_P1;PMS_P2;Temp;Humidity;BMP_temperature;BMP_pressure;BME280_temperature;BME280_humidity;BME280_pressure;Samples;Min_cycle;Max_cycle;Signal;HPM_P1;HPM_P2
2021/04/06 00:00:48;;;;;;;19.53;2.20;;;2.60;95.10;;;;;;10485726;28;20772;-72
2021/04/06 00:05:55;;;;;;;12.63;1.63;;;2.50;94.80;;;;;;10486180;28;20072;-72
2021/04/06 00:10:58;;;;;;;33.73;3.10;;;2.50;94.70;;;;;;10487475;28;20134;-72
2021/04/06 00:16:02;;;;;;;13.27;2.70;;;2.50;94.50;;;;;;10488863;28;20507;-72
2021/04/06 00:21:04;;;;;;;;;;;2.50;94.70;;;;;;10488408;28;20135;-73
2021/04/06 00:26:06;;;;;;;18.45;2.90;;;2.60;94.50;;;;;;10488242;28;19916;-72
2021/04/06 00:31:09;;;;;;;12.93;2.17;;;2.50;94.40;;;;;;10488259;28;20044;-72
2021/04/06 00:36:13;;;;;;;22.47;3.53;;;2.40;94.00;;;;;;10486800;28;20365;-74
2021/04/06 00:41:15;;;;;;;20.83;3.53;;;2.40;93.70;;;;;;10486834;28;20134;-72
2021/04/06 00:46:20;;;;;;;26.38;4.00;;;2.50;93.10;;;;;;10487942;28;20040;-71
2021/04/06 00:51:23;;;;;;;25.43;4.20;;;2.60;93.00;;;;;;10487548;28;20041;-71
2021/04/06 00:56:26;;;;;;;23.13;2.88;;;2.70;92.90;;;;;;10488044;28;20122;-70
2021/04/06 01:01:36;;;;;;;13.23;2.25;;;2.90;92.50;;;;;;10487021;28;20139;-70
2021/04/06 01:06:57;;;;;;;8.63;1.92;;;2.90;90.50;;;;;;10483375;28;20131;-71
2021/04/06 01:11:59;;;;;;;37.28;2.95;;;2.80;90.00;;;;;;10485850;28;20135;-70
2021/04/06 01:17:00;;;;;;;17.67;2.47;;;2.90;90.60;;;;;;10487134;28;20408;-70
2021/04/06 01:22:06;;;;;;;10.38;1.27;;;3.00;90.40;;;;;;10487582;28;20052;-69
2021/04/06 01:27:12;;;;;;;28.00;3.03;;;2.90;87.30;;;;;;10487584;28;20460;-70
2021/04/06 01:32:15;;;;;;;21.38;3.88;;;2.70;89.10;;;;;;10486425;28;20044;-70
2021/04/06 01:37:19;;;;;;;25.90;3.60;;;2.60;92.20;;;;;;10484741;28;20051;-70
2021/04/06 01:42:26;;;;;;;26.00;2.25;;;2.50;93.20;;;;;;10481271;28;20072;-70
2021/04/06 01:47:28;;;;;;;13.30;2.35;;;2.50;93.50;;;;;;10480340;28;20446;-70
2021/04/06 01:52:29;;;;;;;8.23;2.40;;;2.40;93.40;;;;;;10487530;28;20106;-70
2021/04/06 01:57:34;;;;;;;17.02;1.92;;;2.30;93.80;;;;;;10494900;28;20070;-70
2021/04/06 02:02:38;;;;;;;14.50;3.10;;;2.30;94.50;;;;;;10494119;28;20132;-70
2021/04/06 02:07:40;;;;;;;23.53;1.83;;;2.20;94.10;;;;;;10493063;28;20045;-70
2021/04/06 02:12:43;;;;;;;19.80;2.03;;;1.90;93.80;;;;;;10493575;28;20040;-70
2021/04/06 02:17:49;;;;;;;21.42;2.55;;;1.70;94.50;;;;;;10492106;28;20051;-70
2021/04/06 02:22:58;;;;;;;27.80;3.27;;;1.60;95.40;;;;;;10490157;28;20075;-70
2021/04/06 02:28:00;;;;;;;21.00;2.37;;;1.60;96.00;;;;;;10490103;28;20067;-70
2021/04/06 02:33:03;;;;;;;17.45;3.20;;;1.70;96.30;;;;;;10489461;28;20048;-70
2021/04/06 02:38:04;;;;;;;13.85;2.85;;;2.00;96.10;;;;;;10488121;28;20710;-71
2021/04/06 02:43:07;;;;;;;17.45;3.38;;;2.30;95.50;;;;;;10489722;28;20054;-71
2021/04/06 02:48:12;;;;;;;27.77;2.80;;;2.30;95.60;;;;;;10492283;28;20043;-70
2021/04/06 02:53:17;;;;;;;13.33;1.53;;;2.20;95.60;;;;;;10490997;28;20080;-70
2021/04/06 02:58:19;;;;;;;8.80;1.83;;;2.10;95.70;;;;;;10492418;28;20087;-70
2021/04/06 03:03:22;;;;;;;19.80;3.77;;;1.90;94.60;;;;;;10491341;28;20185;-70
2021/04/06 03:08:29;;;;;;;19.95;2.20;;;1.60;95.10;;;;;;10491261;28;20043;-69
2021/04/06 03:13:32;;;;;;;29.87;3.37;;;1.60;95.80;;;;;;10491317;28;20048;-70
2021/04/06 03:18:35;;;;;;;32.37;2.83;;;1.80;95.90;;;;;;10491857;28;20123;-70
2021/04/06 03:23:36;;;;;;;21.02;1.60;;;2.00;95.80;;;;;;10489458;28;20080;-70
2021/04/06 03:28:40;;;;;;;17.80;2.23;;;2.20;95.60;;;;;;10487648;28;20055;-70
2021/04/06 03:33:43;;;;;;;17.60;2.33;;;2.00;95.10;;;;;;10481260;28;20139;-70
2021/04/06 03:38:44;;;;;;;15.13;1.77;;;1.80;95.60;;;;;;10464543;28;20058;-70
2021/04/06 03:43:46;;;;;;;13.10;2.05;;;1.70;96.10;;;;;;10486505;28;20381;-70
2021/04/06 03:48:48;;;;;;;19.40;1.73;;;1.60;95.90;;;;;;10489611;28;20094;-71
2021/04/06 03:53:50;;;;;;;16.67;2.43;;;1.60;96.10;;;;;;10488598;28;20534;-71
2021/04/06 03:58:56;;;;;;;21.87;2.93;;;1.70;96.40;;;;;;10489583;28;20044;-70
2021/04/06 04:03:58;;;;;;;10.93;2.17;;;1.70;96.80;;;;;;10489074;28;20040;-70
2021/04/06 04:08:59;;;;;;;19.40;2.90;;;1.90;96.90;;;;;;10489871;28;20135;-71
2021/04/06 04:14:01;;;;;;;13.98;1.70;;;1.80;96.80;;;;;;10489350;28;20535;-70
2021/04/06 04:19:04;;;;;;;8.93;1.53;;;1.80;96.70;;;;;;10487876;28;20083;-70
2021/04/06 04:24:06;;;;;;;17.33;1.77;;;1.60;96.60;;;;;;10487400;28;20102;-71
2021/04/06 04:29:08;;;;;;;4.30;1.20;;;1.60;96.50;;;;;;10486826;28;20054;-70
2021/04/06 04:34:09;;;;;;;11.57;1.93;;;1.60;95.70;;;;;;10486385;28;20187;-70
2021/04/06 04:39:10;;;;;;;12.53;1.57;;;1.70;95.40;;;;;;10486227;28;20143;-70
2021/04/06 04:44:12;;;;;;;6.90;1.30;;;1.70;94.90;;;;;;10486571;28;20127;-70
2021/04/06 04:49:14;;;;;;;13.03;1.40;;;1.70;94.40;;;;;;10487427;28;20055;-70
2021/04/06 04:54:15;;;;;;;12.20;2.27;;;1.80;93.90;;;;;;10486699;28;20480;-72
2021/04/06 04:59:17;;;;;;;17.20;3.13;;;2.00;93.40;;;;;;10482087;28;20444;-72
2021/04/06 05:04:19;;;;;;;22.53;2.43;;;2.20;92.50;;;;;;10484762;28;20587;-72
2021/04/06 05:09:20;;;;;;;23.50;2.03;;;2.30;93.20;;;;;;10480428;28;20044;-73
2021/04/06 05:14:22;;;;;;;24.80;3.17;;;2.20;94.20;;;;;;10485304;28;20131;-72
2021/04/06 05:19:24;;;;;;;13.77;2.30;;;1.90;95.00;;;;;;10484597;28;20114;-72
2021/04/06 05:24:25;;;;;;;18.83;2.55;;;1.70;95.40;;;;;;10484085;28;20048;-71
2021/04/06 05:29:27;;;;;;;12.32;1.30;;;1.60;95.40;;;;;;10489052;28;20056;-72
2021/04/06 05:34:28;;;;;;;10.63;1.13;;;1.60;95.30;;;;;;10492503;28;20036;-72
2021/04/06 05:39:30;;;;;;;12.75;2.03;;;1.50;95.50;;;;;;10492274;28;20085;-72
2021/04/06 05:44:32;;;;;;;7.50;1.55;;;1.60;95.80;;;;;;10489607;28;20461;-72
2021/04/06 05:49:35;;;;;;;9.00;1.40;;;2.10;97.30;;;;;;10488859;28;20544;-71
2021/04/06 05:54:37;;;;;;;14.70;2.53;;;2.10;95.30;;;;;;10492522;28;20143;-72
2021/04/06 05:59:39;;;;;;;16.97;2.53;;;2.50;94.90;;;;;;10489430;28;20298;-72
2021/04/06 06:04:40;;;;;;;17.95;2.08;;;3.20;93.60;;;;;;10490370;28;20047;-71
2021/04/06 06:09:42;;;;;;;8.48;1.73;;;4.20;90.10;;;;;;10491987;28;20139;-71
2021/04/06 06:14:48;;;;;;;24.92;2.72;;;3.70;89.00;;;;;;10484414;28;20044;-71
2021/04/06 06:19:51;;;;;;;16.08;2.38;;;3.20;89.40;;;;;;10487486;28;20040;-71
2021/04/06 06:25:04;;;;;;;16.83;2.20;;;3.10;89.40;;;;;;10489046;28;20055;-71
2021/04/06 06:30:27;;;;;;;9.77;1.97;;;3.00;89.00;;;;;;10485033;28;20045;-71
2021/04/06 06:35:35;;;;;;;13.82;1.55;;;6.60;74.60;;;;;;10484421;28;20069;-70
2021/04/06 06:40:36;;;;;;;9.52;1.67;;;10.80;55.50;;;;;;10487391;28;20123;-71
2021/04/06 06:45:38;;;;;;;23.95;2.13;;;12.70;50.40;;;;;;10486304;28;20589;-70
2021/04/06 06:50:46;;;;;;;15.57;2.07;;;13.60;47.50;;;;;;10490476;28;20059;-72
2021/04/06 06:55:51;;;;;;;12.85;2.17;;;15.00;44.50;;;;;;10490632;28;20044;-69
2021/04/06 07:00:54;;;;;;;17.10;2.47;;;14.70;45.80;;;;;;10489493;28;20033;-69
2021/04/06 07:05:55;;;;;;;20.80;2.47;;;13.00;50.40;;;;;;10487330;28;20071;-69
2021/04/06 07:11:00;;;;;;;22.00;1.85;;;8.10;67.40;;;;;;10487729;28;20129;-69
2021/04/06 07:16:04;;;;;;;15.38;1.77;;;5.10;78.90;;;;;;10486058;28;20629;-72
2021/04/06 07:21:06;;;;;;;9.98;1.75;;;3.40;87.20;;;;;;10488327;28;20047;-71
2021/04/06 07:26:10;;;;;;;20.58;3.35;;;3.00;90.70;;;;;;10486638;28;20064;-71
2021/04/06 07:31:15;;;;;;;34.53;2.75;;;3.20;91.60;;;;;;10485961;28;20080;-73
2021/04/06 07:36:19;;;;;;;27.88;3.17;;;3.70;91.20;;;;;;10482362;28;20052;-71
2021/04/06 07:41:22;;;;;;;13.73;2.42;;;8.30;78.00;;;;;;10486083;28;20083;-72
2021/04/06 07:46:41;;;;;;;24.60;3.00;;;9.70;68.70;;;;;;10487693;28;20064;-71
2021/04/06 07:51:49;;;;;;;12.73;1.92;;;6.60;77.90;;;;;;10485619;28;20048;-71
2021/04/06 07:56:56;;;;;;;12.40;2.13;;;7.00;78.30;;;;;;10486609;28;20132;-71
2021/04/06 08:02:24;;;;;;;12.32;1.48;;;11.00;57.50;;;;;;10485670;28;20044;-71
2021/04/06 08:07:32;;;;;;;8.88;2.22;;;13.00;54.30;;;;;;10485785;28;20127;-71
2021/04/06 08:12:34;;;;;;;18.40;2.53;;;15.30;47.80;;;;;;10488415;28;20478;-70
2021/04/06 08:17:49;;;;;;;15.35;1.90;;;13.70;54.80;;;;;;10503508;28;20050;-71
2021/04/06 08:22:54;;;;;;;6.15;1.13;;;10.50;61.40;;;;;;10485791;28;20097;-70
2021/04/06 08:27:56;;;;;;;8.68;1.55;;;6.70;73.60;;;;;;10483852;28;21173;-72
2021/04/06 08:33:26;;;;;;;7.85;1.63;;;4.80;84.00;;;;;;10487525;28;20135;-72
2021/04/06 08:38:48;;;;;;;11.27;2.05;;;3.90;88.70;;;;;;10487154;28;20045;-71
2021/04/06 08:43:53;;;;;;;21.40;2.58;;;3.80;91.40;;;;;;10490942;28;20103;-70
2021/04/06 08:48:57;;;;;;;19.88;2.17;;;3.60;91.70;;;;;;10487259;28;20140;-71
2021/04/06 08:54:00;;;;;;;22.35;1.95;;;2.60;92.30;;;;;;10485667;28;20465;-71
2021/04/06 08:59:12;;;;;;;20.50;1.73;;;3.70;94.20;;;;;;10482544;28;20645;-74
2021/04/06 09:04:20;;;;;;;1.25;0.60;;;2.20;94.50;;;;;;10481122;28;20037;-73
2021/04/06 09:09:24;;;;;;;6.22;1.90;;;2.20;94.10;;;;;;10481382;28;20174;-72
2021/04/06 09:14:27;;;;;;;10.73;1.40;;;2.50;93.90;;;;;;10485319;28;20090;-70
2021/04/06 09:19:30;;;;;;;6.07;1.48;;;3.60;92.80;;;;;;10482587;28;20161;-70
2021/04/06 09:24:32;;;;;;;11.00;1.67;;;8.70;90.20;;;;;;10484354;28;20052;-70
2021/04/06 09:29:37;;;;;;;7.70;1.37;;;10.10;82.10;;;;;;10483478;28;20471;-70
2021/04/06 09:34:41;;;;;;;17.02;2.03;;;9.60;77.40;;;;;;10484868;28;20143;-72
2021/04/06 09:39:44;;;;;;;4.45;1.23;;;7.10;80.60;;;;;;10485313;28;20040;-71
2021/04/06 09:44:47;;;;;;;13.70;1.35;;;6.50;85.60;;;;;;10483546;28;20477;-71
2021/04/06 09:49:51;;;;;;;11.40;1.65;;;3.20;90.20;;;;;;10484634;28;20051;-70
2021/04/06 09:54:55;;;;;;;10.77;1.77;;;2.60;92.10;;;;;;10483661;28;20064;-69
2021/04/06 09:59:57;;;;;;;27.55;3.63;;;3.00;93.20;;;;;;10484530;28;20396;-69
2021/04/06 10:04:59;;;;;;;12.52;1.83;;;2.10;94.10;;;;;;10483541;28;20142;-69
2021/04/06 10:10:03;;;;;;;6.18;1.23;;;2.20;94.40;;;;;;10483783;28;20044;-70
2021/04/06 10:15:06;;;;;;;5.55;1.25;;;2.10;94.40;;;;;;10487845;28;20135;-69
2021/04/06 10:20:12;;;;;;;4.75;0.90;;;2.20;94.40;;;;;;10491689;28;20528;-69
2021/04/06 10:25:17;;;;;;;8.75;2.20;;;2.80;93.90;;;;;;10490679;28;20735;-68
2021/04/06 10:30:26;;;;;;;12.13;1.85;;;3.00;93.60;;;;;;10491169;28;20136;-68
2021/04/06 10:35:31;;;;;;;15.63;2.75;;;3.40;93.50;;;;;;10491672;28;20076;-68
2021/04/06 10:40:36;;;;;;;17.45;1.67;;;4.80;92.90;;;;;;10490845;28;20049;-69
2021/04/06 10:45:39;;;;;;;15.95;1.92;;;7.20;91.00;;;;;;10489350;28;20056;-69
2021/04/06 10:50:45;;;;;;;8.20;1.55;;;9.30;89.00;;;;;;10490031;28;20060;-69
2021/04/06 10:55:53;;;;;;;12.35;1.80;;;7.90;86.00;;;;;;10487031;28;20220;-69
2021/04/06 11:01:10;;;;;;;4.28;1.00;;;7.30;90.00;;;;;;10486940;28;20063;-70
2021/04/06 11:06:15;;;;;;;10.07;1.75;;;10.60;90.10;;;;;;10487977;28;21701;-69
2021/04/06 11:11:27;;;;;;;5.57;1.08;;;9.90;82.50;;;;;;10486176;28;20040;-70
2021/04/06 11:16:29;;;;;;;7.00;1.15;;;10.40;78.10;;;;;;10487179;28;20036;-70
2021/04/06 11:21:32;;;;;;;15.30;1.60;;;9.00;76.30;;;;;;10487525;28;20646;-71
2021/04/06 11:26:50;;;;;;;17.05;1.67;;;7.10;81.50;;;;;;10485529;28;20075;-73
2021/04/06 11:32:19;;;;;;;13.95;1.63;;;5.00;88.50;;;;;;10485616;28;20480;-72
2021/04/06 11:44:34;;;;;;;8.93;1.30;;;2.30;94.30;;;;;;10477801;28;20579;-71
2021/04/06 11:56:48;;;;;;;14.50;2.47;;;3.80;95.30;;;;;;10488655;28;20561;-73
2021/04/06 12:01:59;;;;;;;5.90;1.65;;;5.10;94.70;;;;;;10471854;28;20055;-73
2021/04/06 12:07:05;;;;;;;18.20;2.20;;;6.70;91.70;;;;;;10489099;28;20056;-72
2021/04/06 12:12:15;;;;;;;8.63;1.75;;;7.60;90.40;;;;;;10486630;28;20436;-73
2021/04/06 12:17:35;;;;;;;6.95;1.13;;;7.60;87.80;;;;;;10484272;28;20052;-75
2021/04/06 12:22:41;;;;;;;85.57;4.20;;;6.40;86.60;;;;;;10482510;28;20366;-74
2021/04/06 12:27:44;;;;;;;35.17;2.05;;;6.10;91.90;;;;;;10483831;28;20084;-75
2021/04/06 12:32:46;;;;;;;8.82;1.65;;;7.60;93.30;;;;;;10485057;28;20464;-73
2021/04/06 12:37:47;;;;;;;10.70;1.53;;;7.90;91.20;;;;;;10485230;28;20050;-73
2021/04/06 12:42:48;;;;;;;16.38;2.38;;;7.80;90.40;;;;;;10485076;28;20123;-72
2021/04/06 12:47:51;;;;;;;18.88;1.92;;;7.70;90.50;;;;;;10483102;28;20048;-70
2021/04/06 12:52:52;;;;;;;13.30;1.97;;;8.30;88.20;;;;;;10467299;28;20083;-74
2021/04/06 12:57:54;;;;;;;13.85;2.33;;;8.10;83.70;;;;;;10485530;28;20037;-74
2021/04/06 13:02:56;;;;;;;15.98;3.35;;;7.80;83.60;;;;;;10486097;28;20047;-75
2021/04/06 13:07:57;;;;;;;10.10;2.15;;;5.40;85.30;;;;;;10483757;28;20450;-74
2021/04/06 13:12:58;;;;;;;11.98;1.90;;;4.10;91.00;;;;;;10486055;28;20125;-73
2021/04/06 13:18:01;;;;;;;14.10;1.98;;;4.00;92.30;;;;;;10485741;28;20052;-72
2021/04/06 13:23:03;;;;;;;17.77;1.67;;;5.00;91.90;;;;;;10486792;28;20484;-74
2021/04/06 13:28:05;;;;;;;11.30;1.80;;;6.10;90.50;;;;;;10484730;28;20384;-73
2021/04/06 13:33:07;;;;;;;4.95;1.55;;;6.30;88.40;;;;;;10484382;28;20052;-74
2021/04/06 13:38:08;;;;;;;2.33;0.93;;;6.40;86.50;;;;;;10484502;28;20078;-75
2021/04/06 13:43:10;;;;;;;7.25;1.00;;;6.30;86.50;;;;;;10488664;28;20411;-73
2021/04/06 13:48:13;;;;;;;7.95;2.15;;;6.30;84.20;;;;;;10487674;28;20125;-75
2021/04/06 13:53:14;;;;;;;26.48;2.53;;;6.20;85.30;;;;;;10492618;28;20114;-73
2021/04/06 13:58:16;;;;;;;24.80;3.13;;;6.10;84.80;;;;;;10494040;28;20143;-73
2021/04/06 14:03:19;;;;;;;11.68;2.25;;;5.40;86.70;;;;;;10490387;28;20067;-74
2021/04/06 14:08:20;;;;;;;14.88;1.52;;;4.80;89.50;;;;;;10493089;28;20127;-73
2021/04/06 14:13:21;;;;;;;14.32;2.22;;;4.30;90.60;;;;;;10492529;28;20044;-73
2021/04/06 14:18:23;;;;;;;14.18;2.30;;;3.80;91.70;;;;;;10493035;28;20115;-74
2021/04/06 14:23:28;;;;;;;19.85;1.77;;;3.90;93.00;;;;;;10488912;28;20044;-74
2021/04/06 14:28:30;;;;;;;9.85;1.77;;;3.90;92.90;;;;;;10473872;28;20500;-77
2021/04/06 14:33:32;;;;;;;17.70;2.00;;;3.40;93.90;;;;;;10475074;28;20430;-74
2021/04/06 14:38:33;;;;;;;13.20;2.00;;;3.30;94.80;;;;;;10486596;28;20571;-72
2021/04/06 14:43:36;;;;;;;20.13;2.20;;;4.20;94.90;;;;;;10491746;28;20133;-73
2021/04/06 14:48:42;;;;;;;11.48;2.67;;;5.00;93.50;;;;;;10490255;28;20044;-72
2021/04/06 14:53:45;;;;;;;15.13;1.83;;;5.40;92.70;;;;;;10491100;28;20480;-72
2021/04/06 14:58:51;;;;;;;10.88;1.75;;;5.60;92.30;;;;;;10490576;28;20091;-74
2021/04/06 15:03:55;;;;;;;14.02;1.58;;;5.40;91.50;;;;;;10487679;28;20041;-73
2021/04/06 15:08:57;;;;;;;5.78;1.30;;;5.40;91.30;;;;;;10488924;28;20040;-73
2021/04/06 15:13:58;;;;;;;17.52;2.35;;;5.50;89.80;;;;;;10488308;28;20468;-74
2021/04/06 15:19:00;;;;;;;20.02;2.15;;;5.20;88.60;;;;;;10490222;28;20135;-74
2021/04/06 15:24:02;;;;;;;29.95;2.28;;;3.90;88.50;;;;;;10488816;28;20131;-74
2021/04/06 15:29:03;;;;;;;4.50;1.60;;;3.60;91.70;;;;;;10486754;28;20079;-71
2021/04/06 15:34:08;;;;;;;33.42;3.53;;;4.10;90.70;;;;;;10488252;28;20052;-72
2021/04/06 15:39:10;;;;;;;21.95;2.00;;;5.80;90.20;;;;;;10496009;28;20098;-78
2021/04/06 15:44:11;;;;;;;21.20;2.95;;;4.10;90.70;;;;;;10505691;28;20036;-73
2021/04/06 15:49:15;;;;;;;8.48;1.95;;;3.30;91.20;;;;;;10488079;28;20123;-74
2021/04/06 15:54:17;;;;;;;8.73;1.95;;;4.10;90.60;;;;;;10487512;28;20059;-75
2021/04/06 15:59:19;;;;;;;12.02;4.40;;;4.90;88.00;;;;;;10487947;28;20124;-74
2021/04/06 16:04:21;;;;;;;6.33;1.70;;;4.80;86.60;;;;;;10486674;28;20048;-72
2021/04/06 16:09:23;;;;;;;14.07;1.90;;;4.90;85.40;;;;;;10485190;28;20106;-77
2021/04/06 16:14:24;;;;;;;7.15;2.50;;;4.30;85.50;;;;;;10486400;28;20048;-71
2021/04/06 16:19:28;;;;;;;8.65;1.20;;;4.20;87.10;;;;;;10486230;28;20127;-72
2021/04/06 16:24:29;;;;;;;6.32;1.65;;;3.90;87.40;;;;;;10485264;28;20686;-71
2021/04/06 16:29:30;;;;;;;8.38;1.33;;;3.70;87.90;;;;;;10486747;28;20115;-71
2021/04/06 16:34:32;;;;;;;8.85;1.38;;;3.60;89.20;;;;;;10486713;28;20637;-71
2021/04/06 16:39:33;;;;;;;13.68;2.17;;;3.50;90.00;;;;;;10486953;28;20075;-70
2021/04/06 16:44:36;;;;;;;14.07;1.77;;;3.60;89.90;;;;;;10480935;28;20171;-72
2021/04/06 16:49:40;;;;;;;18.83;3.03;;;3.70;89.80;;;;;;10484172;28;20051;-73
2021/04/06 16:54:41;;;;;;;42.80;2.92;;;3.50;89.70;;;;;;10484105;28;20072;-73
2021/04/06 16:59:42;;;;;;;11.68;0.80;;;2.40;90.70;;;;;;10486000;28;20144;-73
2021/04/06 17:04:44;;;;;;;10.77;0.50;;;1.20;93.20;;;;;;10484896;28;20071;-72
2021/04/06 17:09:46;;;;;;;6.50;0.53;;;0.80;95.30;;;;;;10485448;28;20199;-72
2021/04/06 17:14:47;;;;;;;1.95;0.40;;;1.90;96.90;;;;;;10484944;28;20136;-72
2021/04/06 17:19:50;;;;;;;2.10;0.47;;;0.60;97.60;;;;;;10485283;28;20540;-71
2021/04/06 17:24:51;;;;;;;0.30;0.30;;;0.60;98.10;;;;;;10483672;28;20084;-73
2021/04/06 17:29:52;;;;;;;5.17;0.60;;;0.50;98.40;;;;;;10492498;28;20052;-75
2021/04/06 17:34:55;;;;;;;0.60;0.60;;;0.80;98.60;;;;;;10492087;28;20048;-76
2021/04/06 17:39:56;;;;;;;0.55;0.52;;;1.20;98.40;;;;;;10488513;28;20052;-75
2021/04/06 17:44:57;;;;;;;1.00;0.50;;;1.30;98.00;;;;;;10490931;28;20048;-77
2021/04/06 17:50:00;;;;;;;1.50;0.90;;;1.10;97.90;;;;;;10500288;28;20068;-77
2021/04/06 17:55:02;;;;;;;4.70;0.70;;;1.00;98.00;;;;;;10494457;28;20136;-77
2021/04/06 18:00:25;;;;;;;3.13;0.60;;;0.90;98.10;;;;;;10491077;28;20056;-75
2021/04/06 18:05:45;;;;;;;10.40;0.97;;;0.80;97.90;;;;;;10492041;28;20049;-78
2021/04/06 18:16:11;;;;;;;3.50;0.73;;;1.10;99.90;;;;;;10492698;28;20045;-76
2021/04/06 18:21:25;;;;;;;0.80;0.80;;;1.10;99.90;;;;;;10509416;28;20045;-76
2021/04/06 18:26:36;;;;;;;6.47;1.40;;;1.10;99.90;;;;;;10491421;28;20088;-74
2021/04/06 18:32:07;;;;;;;5.20;0.80;;;1.00;98.10;;;;;;10493526;28;20053;-73
2021/04/06 18:37:28;;;;;;;4.63;1.17;;;1.10;98.30;;;;;;10484872;28;20151;-76
2021/04/06 18:42:35;;;;;;;3.43;1.40;;;1.20;98.30;;;;;;10485202;28;20722;-74
2021/04/06 18:47:36;;;;;;;4.23;1.70;;;1.30;99.90;;;;;;10495185;28;20135;-73
2021/04/06 18:52:39;;;;;;;1.67;0.90;;;1.20;98.00;;;;;;10489700;28;20075;-77
2021/04/06 18:57:40;;;;;;;2.67;1.03;;;1.00;97.30;;;;;;10490202;28;20132;-76
2021/04/06 19:02:41;;;;;;;1.40;0.77;;;0.90;97.10;;;;;;10483378;28;20091;-74
2021/04/06 19:07:54;;;;;;;0.80;0.80;;;0.90;99.40;;;;;;10485470;28;20096;-72
2021/04/06 19:12:57;;;;;;;3.13;1.27;;;0.80;97.30;;;;;;10500171;28;20076;-73
2021/04/06 19:18:04;;;;;;;3.17;0.47;;;0.60;97.30;;;;;;10494045;28;20045;-71
2021/04/06 19:23:08;;;;;;;7.73;1.17;;;0.60;97.50;;;;;;10486798;28;20076;-73
2021/04/06 19:28:10;;;;;;;9.57;1.13;;;0.60;98.00;;;;;;10485531;28;20185;-74
2021/04/06 19:33:12;;;;;;;1.50;1.27;;;0.80;98.10;;;;;;10485784;28;20132;-72
2021/04/06 19:38:14;;;;;;;1.70;1.17;;;0.90;97.70;;;;;;10480615;28;20170;-74
2021/04/06 19:43:15;;;;;;;5.70;1.30;;;1.10;97.20;;;;;;10482757;28;20140;-72
2021/04/06 19:48:17;;;;;;;2.50;1.13;;;1.30;96.40;;;;;;10484079;28;20127;-73
2021/04/06 19:53:19;;;;;;;12.37;2.27;;;1.40;98.10;;;;;;10486940;28;20043;-72
2021/04/06 19:58:22;;;;;;;11.10;1.02;;;1.40;95.40;;;;;;10486236;28;20040;-73
2021/04/06 20:03:25;;;;;;;2.90;0.90;;;1.40;95.60;;;;;;10487184;28;20076;-74
2021/04/06 20:08:27;;;;;;;2.70;0.70;;;1.50;97.40;;;;;;10485842;28;20465;-72
2021/04/06 20:13:32;;;;;;;4.65;0.85;;;1.30;94.80;;;;;;10485370;28;20502;-72
2021/04/06 20:18:34;;;;;;;9.73;1.50;;;1.20;95.00;;;;;;10484656;28;20083;-71
2021/04/06 20:23:37;;;;;;;10.30;2.50;;;1.30;94.80;;;;;;10483138;28;20883;-72
2021/04/06 20:28:41;;;;;;;15.13;2.65;;;1.50;94.70;;;;;;10480432;28;20080;-73
2021/04/06 20:33:48;;;;;;;6.60;1.47;;;1.30;94.90;;;;;;10477214;28;20041;-72
2021/04/06 20:38:50;;;;;;;4.30;1.27;;;1.20;95.60;;;;;;10483340;28;20048;-73
2021/04/06 20:43:51;;;;;;;2.97;0.90;;;1.20;96.20;;;;;;10486798;28;20544;-72
2021/04/06 20:48:53;;;;;;;5.68;1.17;;;1.20;96.00;;;;;;10485781;28;20123;-73
2021/04/06 20:53:56;;;;;;;6.70;1.27;;;1.20;95.60;;;;;;10486325;28;20120;-73
2021/04/06 20:58:58;;;;;;;5.70;1.48;;;1.10;95.10;;;;;;10487636;28;20080;-73
2021/04/06 21:04:00;;;;;;;7.37;1.30;;;1.20;98.10;;;;;;10488244;28;20132;-72
2021/04/06 21:09:05;;;;;;;2.60;1.53;;;1.00;96.20;;;;;;10486492;28;20041;-72
2021/04/06 21:14:07;;;;;;;4.67;1.10;;;0.90;96.40;;;;;;10484532;28;20124;-72
2021/04/06 21:19:08;;;;;;;8.60;1.07;;;1.00;96.90;;;;;;10488492;28;20056;-73
2021/04/06 21:24:10;;;;;;;6.20;1.20;;;1.30;97.30;;;;;;10485808;28;20484;-73
2021/04/06 21:29:12;;;;;;;11.20;1.20;;;1.40;96.60;;;;;;10487681;28;20040;-72
2021/04/06 21:34:13;;;;;;;9.83;1.30;;;1.20;95.70;;;;;;10485435;28;20430;-73
2021/04/06 21:39:15;;;;;;;2.07;1.07;;;1.00;95.50;;;;;;10484744;28;20048;-72
2021/04/06 21:44:17;;;;;;;4.30;0.63;;;0.90;95.60;;;;;;10473672;28;20044;-71
2021/04/06 21:49:18;;;;;;;11.27;1.33;;;1.00;95.70;;;;;;10478005;28;20040;-73
2021/04/06 21:54:20;;;;;;;4.77;0.90;;;0.90;95.50;;;;;;10484184;28;20049;-73
2021/04/06 21:59:22;;;;;;;5.05;0.75;;;0.90;95.80;;;;;;10485036;28;20048;-73
2021/04/06 22:04:27;;;;;;;10.73;0.83;;;0.80;96.30;;;;;;10483300;28;20045;-75
2021/04/06 22:09:29;;;;;;;2.90;1.13;;;1.20;96.80;;;;;;10487020;28;20043;-74
2021/04/06 22:14:35;;;;;;;3.50;0.80;;;0.80;97.30;;;;;;10490082;28;20040;-74
2021/04/06 22:19:38;;;;;;;11.23;1.33;;;1.40;99.00;;;;;;10491369;28;20132;-75
2021/04/06 22:24:40;;;;;;;6.47;1.65;;;1.50;99.00;;;;;;10492800;28;20078;-75
2021/04/06 22:29:43;;;;;;;7.60;0.90;;;1.50;96.70;;;;;;10483536;28;20068;-75
2021/04/06 22:34:50;;;;;;;1.15;0.50;;;1.30;96.80;;;;;;10489860;28;20045;-75
2021/04/06 22:39:52;;;;;;;1.97;0.47;;;0.80;99.90;;;;;;10490242;28;20056;-75
2021/04/06 22:44:54;;;;;;;4.93;0.70;;;0.90;97.90;;;;;;10489118;28;20048;-75
2021/04/06 22:50:01;;;;;;;5.20;0.63;;;1.00;99.90;;;;;;10485034;28;20052;-75
2021/04/06 22:55:05;;;;;;;2.03;0.90;;;0.00;98.00;;;;;;10488514;28;20123;-74
2021/04/06 23:00:10;;;;;;;5.60;0.77;;;0.90;98.00;;;;;;10485954;28;20520;-76
2021/04/06 23:05:12;;;;;;;4.33;1.13;;;1.10;97.90;;;;;;10484473;28;20136;-74
2021/04/06 23:10:16;;;;;;;2.30;0.83;;;1.10;97.60;;;;;;10482913;28;20497;-74
2021/04/06 23:15:18;;;;;;;5.40;1.20;;;1.30;97.70;;;;;;10488591;28;20080;-74
2021/04/06 23:20:19;;;;;;;1.80;0.93;;;1.40;99.80;;;;;;10485526;28;20043;-76
2021/04/06 23:25:24;;;;;;;5.93;1.63;;;1.20;99.90;;;;;;10485495;28;20135;-75
2021/04/06 23:30:35;;;;;;;9.00;1.83;;;1.30;97.70;;;;;;10488562;28;20094;-75
2021/04/06 23:35:37;;;;;;;8.40;1.63;;;1.40;97.70;;;;;;10490451;28;20420;-76
2021/04/06 23:40:39;;;;;;;9.83;1.10;;;1.60;97.30;;;;;;10487677;28;20403;-76
2021/04/06 23:45:41;;;;;;;12.50;1.27;;;1.60;97.50;;;;;;10495706;28;20401;-76
2021/04/06 23:50:42;;;;;;;8.70;1.27;;;1.70;97.30;;;;;;10489638;28;20047;-76
2021/04/06 23:55:44;;;;;;;0.93;0.50;;;1.60;97.20;;;;;;10488557;28;20075;-76
